createdAt,value
2023-02-15T00:01:20.218Z,101892.53
2023-02-15T00:03:51.056Z,101879.09
2023-02-15T00:06:20.936Z,101882.59
2023-02-15T00:08:49.341Z,101886.09
2023-02-15T00:11:39.526Z,101874.19
2023-02-15T00:14:09.802Z,101873.44
2023-02-15T00:16:38.574Z,101868.22
2023-02-15T00:19:07.357Z,101870.75
2023-02-15T00:21:38.776Z,101872.34
2023-02-15T00:24:08.912Z,101877.56
2023-02-15T00:26:38.026Z,101868.81
2023-02-15T00:29:06.723Z,101864.53
2023-02-15T00:31:35.956Z,101853.28
2023-02-15T00:34:05.024Z,101853.47
2023-02-15T00:36:33.445Z,101855.66
2023-02-15T00:39:03.333Z,101853.84
2023-02-15T00:41:31.705Z,101863.34
2023-02-15T00:44:00.107Z,101857.28
2023-02-15T00:46:28.616Z,101849.44
2023-02-15T00:48:57.082Z,101854.63
2023-02-15T00:51:25.688Z,101855.44
2023-02-15T00:53:54.245Z,101848.63
2023-02-15T00:56:24.378Z,101846.81
2023-02-15T00:58:52.780Z,101849.22
2023-02-15T01:01:23.179Z,101852.66
2023-02-15T01:03:51.960Z,101849.41
2023-02-15T01:06:20.973Z,101855.88
2023-02-15T01:08:50.025Z,101847.13
2023-02-15T01:11:50.260Z,101849.81
2023-02-15T01:14:12.820Z,101848.94
2023-02-15T01:16:41.561Z,101847.94
2023-02-15T01:19:10.207Z,101846.94
2023-02-15T01:21:38.694Z,101833.84
2023-02-15T01:24:07.417Z,101842.38
2023-02-15T01:26:35.834Z,101836.19
2023-02-15T01:29:04.188Z,101825.81
2023-02-15T01:31:34.363Z,101830.97
2023-02-15T01:34:02.878Z,101829.22
2023-02-15T01:36:31.803Z,101827.44
2023-02-15T01:39:00.136Z,101816.28
2023-02-15T01:41:28.914Z,101818.81
2023-02-15T01:43:59.706Z,101811.06
2023-02-15T01:46:33.959Z,101811.31
2023-02-15T01:49:09.695Z,101808.19
2023-02-15T01:51:40.661Z,101802.16
2023-02-15T01:54:13.983Z,101801.69
2023-02-15T01:56:43.481Z,101797.94
2023-02-15T01:59:16.043Z,101800.84
2023-02-15T02:01:44.535Z,101779.31
2023-02-15T02:04:20.516Z,101801.34
2023-02-15T02:06:51.668Z,101793.25
2023-02-15T02:09:20.045Z,101797.53
2023-02-15T02:11:50.002Z,101787.19
2023-02-15T02:14:19.324Z,101790.59
2023-02-15T02:16:56.294Z,101790.59
2023-02-15T02:19:59.611Z,101777.66
2023-02-15T02:23:12.498Z,101773.47
2023-02-15T02:26:09.056Z,101773.38
2023-02-15T02:29:15.027Z,101776.09
2023-02-15T02:32:26.063Z,101768.19
2023-02-15T02:35:13.973Z,101766.25
2023-02-15T02:37:51.336Z,101765.34
2023-02-15T02:40:27.617Z,101754.03
2023-02-15T02:43:02.686Z,101755.75
2023-02-15T02:45:37.553Z,101761.75
2023-02-15T02:48:10.462Z,101754.94
2023-02-15T02:50:42.465Z,101743.28
2023-02-15T02:53:12.588Z,101743.50
2023-02-15T02:55:45.550Z,101738.50
2023-02-15T02:58:19.757Z,101741.56
2023-02-15T03:00:51.815Z,101745.16
2023-02-15T03:03:25.919Z,101737.63
2023-02-15T03:05:58.155Z,101741.31
2023-02-15T03:08:30.712Z,101732.03
2023-02-15T03:11:02.703Z,101727.69
2023-02-15T03:13:31.383Z,101726.00
2023-02-15T03:16:19.953Z,101720.97
2023-02-15T03:18:53.951Z,101731.19
2023-02-15T03:21:26.496Z,101726.59
2023-02-15T03:24:00.323Z,101728.25
2023-02-15T03:26:31.630Z,101727.25
2023-02-15T03:29:02.806Z,101722.81
2023-02-15T03:31:34.596Z,101730.63
2023-02-15T03:34:06.097Z,101718.41
2023-02-15T03:36:44.324Z,101730.34
2023-02-15T03:39:20.651Z,101716.59
2023-02-15T03:41:58.340Z,101722.47
2023-02-15T03:44:30.690Z,101718.22
2023-02-15T03:47:06.834Z,101718.41
2023-02-15T03:49:44.613Z,101706.69
2023-02-15T03:52:17.291Z,101712.69
2023-02-15T03:54:47.306Z,101720.50
2023-02-15T03:57:39.796Z,101718.06
2023-02-15T04:00:32.004Z,101724.09
2023-02-15T04:03:15.131Z,101716.28
2023-02-15T04:05:45.001Z,101718.81
2023-02-15T04:08:15.440Z,101718.88
2023-02-15T04:10:54.644Z,101711.28
2023-02-15T04:13:24.382Z,101713.06
2023-02-15T04:16:08.173Z,101719.88
2023-02-15T04:18:56.087Z,101710.34
2023-02-15T04:21:43.711Z,101711.16
2023-02-15T04:24:31.521Z,101702.38
2023-02-15T04:27:00.337Z,101692.03
2023-02-15T04:29:29.794Z,101689.44
2023-02-15T04:32:00.255Z,101680.19
2023-02-15T04:34:28.848Z,101696.63
2023-02-15T04:36:57.514Z,101684.59
2023-02-15T04:39:27.326Z,101685.41
2023-02-15T04:41:55.672Z,101688.91
2023-02-15T04:44:24.091Z,101689.75
2023-02-15T04:46:52.534Z,101693.06
2023-02-15T04:49:20.932Z,101689.53
2023-02-15T04:51:49.350Z,101694.66
2023-02-15T04:54:17.707Z,101696.44
2023-02-15T04:56:47.585Z,101695.53
2023-02-15T04:59:16.173Z,101692.88
2023-02-15T05:01:44.576Z,101700.66
2023-02-15T05:04:13.393Z,101695.38
2023-02-15T05:06:41.843Z,101696.44
2023-02-15T05:09:10.251Z,101701.56
2023-02-15T05:11:38.699Z,101697.94
2023-02-15T05:14:08.699Z,101699.56
2023-02-15T05:16:37.268Z,101694.34
2023-02-15T05:19:05.967Z,101694.34
2023-02-15T05:21:34.653Z,101696.19
2023-02-15T05:24:23.031Z,101697.16
2023-02-15T05:27:08.699Z,101694.81
2023-02-15T05:29:38.590Z,101702.63
2023-02-15T05:32:07.651Z,101663.94
2023-02-15T05:34:36.102Z,101684.59
2023-02-15T05:37:04.676Z,101683.53
2023-02-15T05:39:33.019Z,101685.41
2023-02-15T05:42:01.700Z,101681.22
2023-02-15T05:44:30.075Z,101683.88
2023-02-15T05:46:59.844Z,101684.97
2023-02-15T05:49:28.220Z,101682.44
2023-02-15T05:51:56.622Z,101681.56
2023-02-15T05:54:25.042Z,101680.69
2023-02-15T05:56:53.757Z,101672.84
2023-02-15T05:59:22.177Z,101671.22
2023-02-15T06:01:50.914Z,101675.53
2023-02-15T06:04:20.774Z,101676.47
2023-02-15T06:06:49.352Z,101679.06
2023-02-15T06:09:19.641Z,101680.88
2023-02-15T06:11:48.056Z,101678.25
2023-02-15T06:14:16.469Z,101678.38
2023-02-15T06:16:44.854Z,101679.19
2023-02-15T06:19:13.245Z,101693.16
2023-02-15T06:21:43.134Z,101687.19
2023-02-15T06:24:11.782Z,101682.84
2023-02-15T06:26:40.170Z,101687.19
2023-02-15T06:29:09.241Z,101689.66
2023-02-15T06:31:38.003Z,101690.34
2023-02-15T06:34:07.086Z,101691.16
2023-02-15T06:36:35.545Z,101683.25
2023-02-15T06:39:05.558Z,101681.31
2023-02-15T06:41:33.958Z,101655.53
2023-02-15T06:44:02.462Z,101679.38
2023-02-15T06:46:31.036Z,101680.91
2023-02-15T06:48:59.470Z,101679.81
2023-02-15T06:51:27.952Z,101668.34
2023-02-15T06:53:56.336Z,101668.22
2023-02-15T06:56:26.169Z,101668.22
2023-02-15T06:58:54.657Z,101681.03
2023-02-15T07:01:23.185Z,101683.50
2023-02-15T07:03:52.112Z,101688.50
2023-02-15T07:06:20.477Z,101675.44
2023-02-15T07:08:48.888Z,101678.78
2023-02-15T07:11:34.564Z,101676.03
2023-02-15T07:14:04.365Z,101680.25
2023-02-15T07:16:32.762Z,101672.34
2023-02-15T07:19:01.185Z,101670.56
2023-02-15T07:21:29.587Z,101665.31
2023-02-15T07:23:59.695Z,101660.00
2023-02-15T07:26:28.325Z,101667.59
2023-02-15T07:28:56.770Z,101660.47
2023-02-15T07:31:26.651Z,101661.09
2023-02-15T07:33:55.118Z,101660.78
2023-02-15T07:36:23.480Z,101652.97
2023-02-15T07:38:51.916Z,101659.56
2023-02-15T07:41:20.559Z,101656.63
2023-02-15T07:43:49.009Z,101656.31
2023-02-15T07:46:19.162Z,101646.66
2023-02-15T07:48:49.541Z,101652.47
2023-02-15T07:51:18.266Z,101644.47
2023-02-15T07:53:46.939Z,101634.88
2023-02-15T07:56:16.837Z,101634.44
2023-02-15T07:58:54.301Z,101639.34
2023-02-15T08:01:25.575Z,101633.69
2023-02-15T08:03:55.907Z,101632.53
2023-02-15T08:06:25.794Z,101637.38
2023-02-15T08:08:54.289Z,101640.47
2023-02-15T08:11:37.696Z,101640.19
2023-02-15T08:14:07.948Z,101630.41
2023-02-15T08:16:38.297Z,101637.81
2023-02-15T08:19:11.434Z,101640.03
2023-02-15T08:21:41.582Z,101627.41
2023-02-15T08:24:11.293Z,101620.94
2023-02-15T08:26:42.365Z,101626.75
2023-02-15T08:29:12.499Z,101622.84
2023-02-15T08:31:42.824Z,101611.97
2023-02-15T08:34:13.943Z,101602.00
2023-02-15T08:36:43.659Z,101602.31
2023-02-15T08:39:12.137Z,101595.88
2023-02-15T08:41:41.984Z,101593.13
2023-02-15T08:44:11.881Z,101587.78
2023-02-15T08:46:42.729Z,101596.63
2023-02-15T08:49:14.843Z,101600.63
2023-02-15T08:51:43.819Z,101596.75
2023-02-15T08:54:16.031Z,101592.81
2023-02-15T08:56:45.906Z,101599.31
2023-02-15T08:59:17.475Z,101594.63
2023-02-15T09:01:47.574Z,101583.81
2023-02-15T09:04:18.212Z,101587.47
2023-02-15T09:06:49.536Z,101592.13
2023-02-15T09:09:18.765Z,101575.13
2023-02-15T09:11:49.102Z,101584.25
2023-02-15T09:14:19.430Z,101591.28
2023-02-15T09:16:51.064Z,101579.63
2023-02-15T09:19:23.038Z,101580.25
2023-02-15T09:21:51.466Z,101575.56
2023-02-15T09:24:20.278Z,101568.63
2023-02-15T09:26:51.025Z,101570.94
2023-02-15T09:29:20.326Z,101567.28
2023-02-15T09:31:51.182Z,101561.72
2023-02-15T09:34:23.188Z,101565.97
2023-02-15T09:36:52.179Z,101568.19
2023-02-15T09:39:24.801Z,101566.81
2023-02-15T09:42:14.294Z,101571.16
2023-02-15T09:45:00.496Z,101562.25
2023-02-15T09:47:58.277Z,101569.63
2023-02-15T09:50:35.696Z,101563.22
2023-02-15T09:53:29.346Z,101559.34
2023-02-15T09:56:04.903Z,101561.03
2023-02-15T09:58:46.885Z,101560.72
2023-02-15T10:01:27.453Z,101565.47
2023-02-15T10:04:12.484Z,101567.34
2023-02-15T10:06:48.330Z,101559.50
2023-02-15T10:09:41.485Z,101559.28
2023-02-15T10:12:36.898Z,101551.25
2023-02-15T10:15:26.477Z,101550.75
2023-02-15T10:18:17.348Z,101541.16
2023-02-15T10:20:58.842Z,101534.66
2023-02-15T10:23:49.818Z,101535.16
2023-02-15T10:26:21.146Z,101534.91
2023-02-15T10:28:52.445Z,101530.25
2023-02-15T10:31:27.132Z,101517.13
2023-02-15T10:34:11.111Z,101526.44
2023-02-15T10:37:07.277Z,101528.63
2023-02-15T10:39:49.078Z,101522.09
2023-02-15T10:42:29.186Z,101517.34
2023-02-15T10:45:12.394Z,101517.53
2023-02-15T10:47:54.899Z,101520.22
2023-02-15T10:50:32.273Z,101501.28
2023-02-15T10:53:16.541Z,101493.91
2023-02-15T10:55:58.078Z,101494.66
2023-02-15T10:58:37.624Z,101485.78
2023-02-15T11:01:16.153Z,101492.09
2023-02-15T11:03:58.948Z,101485.44
2023-02-15T11:06:29.726Z,101481.16
2023-02-15T11:09:04.419Z,101480.78
2023-02-15T11:11:37.298Z,101474.47
2023-02-15T11:14:13.778Z,101473.09
2023-02-15T11:16:46.847Z,101471.38
2023-02-15T11:19:23.108Z,101462.56
2023-02-15T11:21:57.336Z,101455.22
2023-02-15T11:24:30.515Z,101453.69
2023-02-15T11:27:04.928Z,101458.94
2023-02-15T11:29:37.125Z,101457.59
2023-02-15T11:32:16.810Z,101450.44
2023-02-15T11:34:52.932Z,101438.38
2023-02-15T11:37:35.051Z,101446.34
2023-02-15T11:40:05.247Z,101437.34
2023-02-15T11:42:37.244Z,101435.38
2023-02-15T11:45:19.618Z,101422.41
2023-02-15T11:47:47.992Z,101426.13
2023-02-15T11:50:19.493Z,101420.38
2023-02-15T11:52:47.853Z,101425.13
2023-02-15T11:55:22.466Z,101428.53
2023-02-15T11:57:57.571Z,101411.63
2023-02-15T12:00:37.201Z,101418.94
2023-02-15T12:03:14.353Z,101412.38
2023-02-15T12:05:46.863Z,101408.88
2023-02-15T12:08:19.563Z,101405.41
2023-02-15T12:11:00.714Z,101406.16
2023-02-15T12:13:31.333Z,101406.06
2023-02-15T12:16:09.294Z,101408.81
2023-02-15T12:18:42.064Z,101402.06
2023-02-15T12:21:13.042Z,101396.34
2023-02-15T12:23:49.587Z,101401.75
2023-02-15T12:26:27.304Z,101402.03
2023-02-15T12:29:02.788Z,101402.25
2023-02-15T12:31:38.842Z,101395.38
2023-02-15T12:34:15.555Z,101387.41
2023-02-15T12:36:48.101Z,101382.53
2023-02-15T12:39:23.490Z,101373.44
2023-02-15T12:42:05.050Z,101373.00
2023-02-15T12:44:36.987Z,101374.88
2023-02-15T12:47:07.283Z,101370.63
2023-02-15T12:49:36.972Z,101364.25
2023-02-15T12:52:07.933Z,101363.19
2023-02-15T12:54:41.533Z,101368.84
2023-02-15T12:57:24.282Z,101354.97
2023-02-15T12:59:56.505Z,101357.59
2023-02-15T13:02:30.855Z,101357.19
2023-02-15T13:05:06.976Z,101354.50
2023-02-15T13:07:35.777Z,101349.97
2023-02-15T13:10:04.311Z,101338.53
2023-02-15T13:12:34.829Z,101345.19
2023-02-15T13:15:06.169Z,101342.72
2023-02-15T13:17:35.907Z,101343.31
2023-02-15T13:20:10.987Z,101343.44
2023-02-15T13:22:44.235Z,101340.91
2023-02-15T13:25:17.172Z,101338.88
2023-02-15T13:27:48.646Z,101347.06
2023-02-15T13:30:27.441Z,101332.59
2023-02-15T13:33:00.337Z,101332.69
2023-02-15T13:35:36.745Z,101324.38
2023-02-15T13:38:35.114Z,101330.28
2023-02-15T13:41:09.491Z,101326.78
2023-02-15T13:43:48.490Z,101324.13
2023-02-15T13:46:31.113Z,101317.13
2023-02-15T13:49:14.758Z,101311.56
2023-02-15T13:51:48.279Z,101313.72
2023-02-15T13:54:35.740Z,101314.69
2023-02-15T13:57:23.444Z,101308.13
2023-02-15T14:00:05.611Z,101312.22
2023-02-15T14:03:10.931Z,101304.53
2023-02-15T14:05:54.239Z,101306.22
2023-02-15T14:08:35.373Z,101312.09
2023-02-15T14:11:13.167Z,101306.09
2023-02-15T14:14:01.084Z,101308.72
2023-02-15T14:16:38.827Z,101314.31
2023-02-15T14:19:18.915Z,101306.78
2023-02-15T14:21:54.857Z,101301.75
2023-02-15T14:24:32.590Z,101305.88
2023-02-15T14:27:09.930Z,101299.75
2023-02-15T14:29:51.769Z,101308.34
2023-02-15T14:32:27.864Z,101309.50
2023-02-15T14:35:00.395Z,101303.13
2023-02-15T14:37:39.502Z,101301.97
2023-02-15T14:40:41.444Z,101298.84
2023-02-15T14:43:14.577Z,101301.75
2023-02-15T14:45:58.687Z,101307.25
2023-02-15T14:48:33.395Z,101294.56
2023-02-15T14:51:03.953Z,101297.72
2023-02-15T14:53:43.338Z,101292.47
2023-02-15T14:56:27.649Z,101289.47
2023-02-15T14:59:16.479Z,101287.78
2023-02-15T15:01:55.320Z,101289.47
2023-02-15T15:04:32.701Z,101293.59
2023-02-15T15:07:08.080Z,101290.13
2023-02-15T15:09:39.542Z,101285.38
2023-02-15T15:12:33.523Z,101283.81
2023-02-15T15:15:02.463Z,101286.81
2023-02-15T15:18:02.315Z,101285.38
2023-02-15T15:20:51.487Z,101281.50
2023-02-15T15:23:51.711Z,101282.13
2023-02-15T15:26:34.446Z,101286.13
2023-02-15T15:29:03.890Z,101284.47
2023-02-15T15:31:53.834Z,101281.34
2023-02-15T15:34:40.756Z,101284.72
2023-02-15T15:37:48.710Z,101281.34
2023-02-15T15:40:43.007Z,101269.06
2023-02-15T15:43:35.132Z,101277.00
2023-02-15T15:46:40.705Z,101267.38
2023-02-15T15:49:13.110Z,101260.66
2023-02-15T15:51:43.266Z,101254.97
2023-02-15T15:54:18.103Z,101268.13
2023-02-15T15:56:51.558Z,101262.19
2023-02-15T15:59:24.769Z,101257.53
2023-02-15T16:01:53.447Z,101262.03
2023-02-15T16:04:27.982Z,101264.94
2023-02-15T16:06:56.459Z,101260.09
2023-02-15T16:09:27.338Z,101255.41
2023-02-15T16:12:01.614Z,101261.47
2023-02-15T16:14:33.356Z,101253.91
2023-02-15T16:17:04.305Z,101256.91
2023-02-15T16:19:37.312Z,101256.88
2023-02-15T16:22:08.750Z,101253.00
2023-02-15T16:24:48.149Z,101247.13
2023-02-15T16:27:40.832Z,101246.72
2023-02-15T16:30:33.615Z,101237.88
2023-02-15T16:33:11.066Z,101242.06
2023-02-15T16:35:41.376Z,101229.66
2023-02-15T16:38:12.659Z,101238.00
2023-02-15T16:40:48.647Z,101225.84
2023-02-15T16:43:23.530Z,101230.09
2023-02-15T16:45:53.002Z,101234.03
2023-02-15T16:48:26.323Z,101234.38
2023-02-15T16:50:58.183Z,101237.75
2023-02-15T16:53:28.795Z,101242.94
2023-02-15T16:55:59.635Z,101236.44
2023-02-15T16:58:40.444Z,101244.34
2023-02-15T17:01:11.266Z,101242.00
2023-02-15T17:03:41.692Z,101235.47
2023-02-15T17:06:22.841Z,101240.66
2023-02-15T17:08:51.429Z,101238.13
2023-02-15T17:11:21.384Z,101231.25
2023-02-15T17:14:16.444Z,101232.94
2023-02-15T17:16:50.338Z,101227.88
2023-02-15T17:19:23.876Z,101227.88
2023-02-15T17:21:55.660Z,101228.00
2023-02-15T17:24:34.545Z,101213.13
2023-02-15T17:27:06.417Z,101224.94
2023-02-15T17:29:39.470Z,101222.66
2023-02-15T17:32:15.517Z,101216.22
2023-02-15T17:34:59.554Z,101212.31
2023-02-15T17:37:31.190Z,101218.19
2023-02-15T17:40:01.856Z,101220.31
2023-02-15T17:42:30.407Z,101218.09
2023-02-15T17:45:00.302Z,101216.84
2023-02-15T17:47:30.279Z,101209.34
2023-02-15T17:49:58.717Z,101200.94
2023-02-15T17:52:30.983Z,101211.44
2023-02-15T17:55:17.078Z,101205.50
2023-02-15T17:57:45.479Z,101198.44
2023-02-15T18:00:35.642Z,101196.81
2023-02-15T18:03:21.398Z,101193.50
2023-02-15T18:06:07.315Z,101187.25
2023-02-15T18:08:53.381Z,101195.94
2023-02-15T18:11:39.693Z,101191.53
2023-02-15T18:14:09.964Z,101189.41
2023-02-15T18:16:43.514Z,101194.19
2023-02-15T18:19:16.483Z,101187.63
2023-02-15T18:21:45.592Z,101190.47
2023-02-15T18:24:21.748Z,101181.94
2023-02-15T18:26:50.268Z,101187.38
2023-02-15T18:29:18.621Z,101185.03
2023-02-15T18:31:53.198Z,101176.22
2023-02-15T18:34:28.565Z,101181.56
2023-02-15T18:36:58.859Z,101179.78
2023-02-15T18:39:34.058Z,101183.91
2023-02-15T18:42:02.532Z,101181.28
2023-02-15T18:44:30.920Z,101189.28
2023-02-15T18:47:00.716Z,101178.28
2023-02-15T18:49:29.332Z,101176.69
2023-02-15T18:51:57.813Z,101188.63
2023-02-15T18:54:27.094Z,101183.00
2023-02-15T18:56:58.152Z,101182.44
2023-02-15T18:59:28.446Z,101178.50
2023-02-15T19:01:57.086Z,101177.81
2023-02-15T19:04:26.897Z,101171.31
2023-02-15T19:06:56.243Z,101163.72
2023-02-15T19:09:26.442Z,101158.38
2023-02-15T19:11:56.653Z,101159.50
2023-02-15T19:14:27.896Z,101162.69
2023-02-15T19:16:56.792Z,101157.81
2023-02-15T19:19:27.549Z,101149.53
2023-02-15T19:21:56.572Z,101155.72
2023-02-15T19:24:30.784Z,101156.84
2023-02-15T19:26:59.212Z,101146.44
2023-02-15T19:29:31.052Z,101145.78
2023-02-15T19:31:59.625Z,101143.16
2023-02-15T19:34:30.284Z,101137.22
2023-02-15T19:36:58.871Z,101137.22
2023-02-15T19:39:30.112Z,101146.16
2023-02-15T19:41:58.535Z,101138.81
2023-02-15T19:44:26.995Z,101139.00
2023-02-15T19:46:55.950Z,101139.47
2023-02-15T19:49:24.668Z,101135.41
2023-02-15T19:51:54.985Z,101134.88
2023-02-15T19:54:31.009Z,101130.72
2023-02-15T19:56:59.807Z,101137.75
2023-02-15T19:59:30.037Z,101129.00
2023-02-15T20:01:59.035Z,101142.22
2023-02-15T20:04:28.405Z,101123.13
2023-02-15T20:07:02.965Z,101120.66
2023-02-15T20:09:34.071Z,101116.16
2023-02-15T20:12:02.854Z,101112.03
2023-02-15T20:14:31.372Z,101116.34
2023-02-15T20:16:59.751Z,101126.19
2023-02-15T20:19:28.226Z,101123.28
2023-02-15T20:21:59.202Z,101121.41
2023-02-15T20:24:30.131Z,101122.03
2023-02-15T20:26:58.555Z,101114.66
2023-02-15T20:29:27.035Z,101119.97
2023-02-15T20:32:01.239Z,101114.06
2023-02-15T20:34:29.726Z,101118.00
2023-02-15T20:36:59.544Z,101118.00
2023-02-15T20:39:28.515Z,101118.19
2023-02-15T20:41:56.979Z,101120.25
2023-02-15T20:44:27.709Z,101122.25
2023-02-15T20:46:58.776Z,101117.38
2023-02-15T20:49:29.167Z,101107.16
2023-02-15T20:51:59.181Z,101107.59
2023-02-15T20:54:30.409Z,101094.94
2023-02-15T20:56:59.403Z,101093.78
2023-02-15T20:59:30.701Z,101103.69
2023-02-15T21:02:02.476Z,101111.91
2023-02-15T21:04:32.905Z,101107.69
2023-02-15T21:07:02.768Z,101107.78
2023-02-15T21:09:31.356Z,101102.59
2023-02-15T21:12:02.811Z,101095.09
2023-02-15T21:14:31.341Z,101095.38
2023-02-15T21:16:59.726Z,101109.91
2023-02-15T21:19:29.004Z,101086.78
2023-02-15T21:21:58.194Z,101101.88
2023-02-15T21:24:30.421Z,101107.66
2023-02-15T21:27:02.295Z,101099.28
2023-02-15T21:29:31.826Z,101107.50
2023-02-15T21:32:00.764Z,101107.09
2023-02-15T21:34:29.228Z,101099.59
2023-02-15T21:36:57.708Z,101085.31
2023-02-15T21:39:31.177Z,101093.28
2023-02-15T21:42:17.152Z,101092.75
2023-02-15T21:45:03.161Z,101086.75
2023-02-15T21:47:50.002Z,101087.09
2023-02-15T21:50:37.760Z,101081.28
2023-02-15T21:53:08.072Z,101083.19
2023-02-15T21:55:38.068Z,101071.53
2023-02-15T21:58:06.748Z,101065.28
2023-02-15T22:00:35.388Z,101071.72
2023-02-15T22:03:03.834Z,101075.44
2023-02-15T22:05:34.264Z,101072.91
2023-02-15T22:08:02.799Z,101068.84
2023-02-15T22:10:33.409Z,101065.63
2023-02-15T22:13:04.833Z,101069.75
2023-02-15T22:15:37.359Z,101063.09
2023-02-15T22:18:06.767Z,101066.84
2023-02-15T22:20:35.148Z,101063.09
2023-02-15T22:23:03.572Z,101069.75
2023-02-15T22:25:32.050Z,101059.28
2023-02-15T22:28:00.510Z,101057.75
2023-02-15T22:30:34.263Z,101072.06
2023-02-15T22:33:03.247Z,101055.78
2023-02-15T22:35:33.327Z,101059.56
2023-02-15T22:38:02.840Z,101049.59
2023-02-15T22:40:34.099Z,101059.78
2023-02-15T22:43:04.667Z,101042.69
2023-02-15T22:45:36.524Z,101053.78
2023-02-15T22:48:05.278Z,101054.13
2023-02-15T22:50:37.026Z,101047.34
2023-02-15T22:53:06.220Z,101047.97
2023-02-15T22:55:38.744Z,101038.13
2023-02-15T22:58:08.201Z,101035.06
2023-02-15T23:00:41.217Z,101038.75
2023-02-15T23:03:17.011Z,101037.38
2023-02-15T23:05:45.983Z,101035.22
2023-02-15T23:08:15.046Z,101031.88
2023-02-15T23:10:45.817Z,101031.84
2023-02-15T23:13:25.459Z,101032.19
2023-02-15T23:15:58.778Z,101039.09
2023-02-15T23:18:30.247Z,101042.28
2023-02-15T23:21:00.880Z,101040.34
2023-02-15T23:23:33.743Z,101044.59
2023-02-15T23:26:04.350Z,101047.09
2023-02-15T23:28:36.771Z,101048.66
2023-02-15T23:31:15.730Z,101039.22
2023-02-15T23:33:44.605Z,101034.59
2023-02-15T23:36:27.188Z,101033.06
2023-02-15T23:38:56.194Z,101035.50
2023-02-15T23:41:26.369Z,101042.13
2023-02-15T23:43:58.075Z,101032.59
2023-02-15T23:46:38.089Z,101032.59
2023-02-15T23:49:15.181Z,101033.53
2023-02-15T23:51:45.381Z,101027.53
2023-02-15T23:54:14.579Z,101033.66
2023-02-15T23:56:44.454Z,101026.03
2023-02-15T23:59:16.998Z,101036.44
